createdAt,value
2023-06-25T00:01:41.265Z,8.87
2023-06-25T00:04:13.681Z,8.72
2023-06-25T00:06:48.804Z,8.99
2023-06-25T00:09:21.196Z,9.72
2023-06-25T00:11:53.479Z,9.05
2023-06-25T00:14:25.767Z,9.13
2023-06-25T00:16:59.093Z,10.26
2023-06-25T00:19:31.421Z,9.56
2023-06-25T00:22:06.263Z,9.69
2023-06-25T00:24:38.594Z,9.17
2023-06-25T00:27:12.132Z,9.68
2023-06-25T00:29:44.676Z,9.20
2023-06-25T00:32:19.367Z,9.18
2023-06-25T00:34:51.742Z,9.80
2023-06-25T00:37:26.781Z,9.01
2023-06-25T00:39:59.162Z,9.01
2023-06-25T00:42:34.467Z,9.08
2023-06-25T00:45:07.472Z,9.23
2023-06-25T00:47:40.001Z,10.25
2023-06-25T00:50:14.366Z,8.55
2023-06-25T00:52:49.736Z,9.24
2023-06-25T00:55:23.028Z,8.38
2023-06-25T00:57:58.772Z,8.54
2023-06-25T01:00:32.377Z,9.60
2023-06-25T01:03:14.044Z,9.19
2023-06-25T01:06:11.675Z,8.23
2023-06-25T01:08:52.268Z,8.55
2023-06-25T01:11:24.755Z,8.48
2023-06-25T01:14:07.642Z,8.54
2023-06-25T01:16:41.345Z,8.61
2023-06-25T01:19:13.844Z,8.50
2023-06-25T01:21:47.747Z,8.36
2023-06-25T01:24:23.004Z,9.03
2023-06-25T01:26:56.766Z,8.84
2023-06-25T01:29:29.096Z,8.67
2023-06-25T01:32:01.653Z,8.19
2023-06-25T01:34:33.970Z,8.54
2023-06-25T01:37:09.857Z,8.72
2023-06-25T01:39:45.679Z,8.89
2023-06-25T01:42:18.325Z,8.50
2023-06-25T01:44:50.648Z,8.41
2023-06-25T01:47:24.153Z,8.54
2023-06-25T01:49:56.416Z,8.79
2023-06-25T01:52:28.637Z,8.46
2023-06-25T01:55:03.734Z,8.29
2023-06-25T01:57:39.335Z,9.42
2023-06-25T02:00:13.863Z,9.78
2023-06-25T02:02:46.287Z,10.04
2023-06-25T02:05:18.692Z,10.26
2023-06-25T02:07:51.251Z,10.36
2023-06-25T02:10:26.227Z,10.51
2023-06-25T02:12:58.625Z,10.46
2023-06-25T02:15:31.151Z,10.50
2023-06-25T02:18:03.917Z,10.20
2023-06-25T02:20:36.312Z,9.86
2023-06-25T02:23:08.609Z,9.88
2023-06-25T02:25:43.577Z,11.09
2023-06-25T02:28:15.985Z,11.54
2023-06-25T02:30:48.615Z,12.58
2023-06-25T02:33:21.059Z,11.68
2023-06-25T02:35:53.809Z,10.34
2023-06-25T02:38:26.245Z,9.79
2023-06-25T02:41:01.337Z,9.43
2023-06-25T02:43:33.773Z,8.74
2023-06-25T02:46:06.301Z,9.32
2023-06-25T02:48:44.135Z,8.49
2023-06-25T02:51:16.474Z,8.87
2023-06-25T02:53:48.723Z,8.74
2023-06-25T02:56:23.819Z,8.66
2023-06-25T02:58:56.085Z,9.44
2023-06-25T03:01:28.453Z,9.74
2023-06-25T03:04:00.880Z,9.94
2023-06-25T03:06:33.446Z,10.19
2023-06-25T03:09:05.889Z,9.99
2023-06-25T03:11:40.977Z,10.86
2023-06-25T03:14:22.056Z,10.74
2023-06-25T03:17:05.920Z,11.31
2023-06-25T03:19:38.485Z,12.08
2023-06-25T03:22:10.948Z,12.10
2023-06-25T03:24:43.263Z,12.57
2023-06-25T03:27:18.365Z,12.35
2023-06-25T03:29:50.659Z,12.46
2023-06-25T03:32:23.230Z,13.11
2023-06-25T03:34:57.123Z,12.90
2023-06-25T03:37:30.203Z,12.67
2023-06-25T03:40:05.547Z,11.86
2023-06-25T03:42:40.620Z,11.81
2023-06-25T03:45:14.488Z,12.22
2023-06-25T03:47:48.091Z,11.86
2023-06-25T03:50:20.489Z,11.69
2023-06-25T03:52:52.811Z,11.31
2023-06-25T03:55:25.188Z,10.75
2023-06-25T03:58:02.317Z,10.37
2023-06-25T04:00:35.230Z,10.76
2023-06-25T04:03:07.609Z,10.64
2023-06-25T04:05:40.103Z,9.77
2023-06-25T04:08:15.007Z,10.09
2023-06-25T04:10:47.406Z,10.63
2023-06-25T04:13:22.463Z,9.69
2023-06-25T04:15:54.894Z,9.98
2023-06-25T04:18:27.162Z,10.67
2023-06-25T04:20:59.537Z,10.68
2023-06-25T04:23:31.912Z,10.97
2023-06-25T04:26:06.188Z,10.56
2023-06-25T04:28:41.946Z,10.44
2023-06-25T04:31:14.316Z,10.54
2023-06-25T04:33:46.754Z,10.49
2023-06-25T04:36:19.889Z,11.80
2023-06-25T04:38:52.252Z,11.79
2023-06-25T04:41:24.608Z,11.96
2023-06-25T04:43:59.510Z,12.35
2023-06-25T04:46:31.901Z,11.89
2023-06-25T04:49:04.549Z,12.19
2023-06-25T04:51:37.033Z,14.06
2023-06-25T04:54:09.453Z,15.95
2023-06-25T04:56:43.206Z,15.66
2023-06-25T04:59:18.173Z,16.19
2023-06-25T05:01:50.646Z,17.36
2023-06-25T05:04:22.966Z,16.89
2023-06-25T05:06:56.363Z,17.43
2023-06-25T05:09:28.780Z,17.11
2023-06-25T05:12:01.098Z,17.09
2023-06-25T05:14:36.392Z,16.77
2023-06-25T05:17:10.336Z,16.80
2023-06-25T05:19:42.717Z,17.61
2023-06-25T05:22:15.026Z,17.50
2023-06-25T05:24:47.432Z,17.82
2023-06-25T05:27:19.825Z,18.04
2023-06-25T05:29:54.826Z,18.28
2023-06-25T05:32:27.249Z,17.75
2023-06-25T05:34:59.510Z,17.74
2023-06-25T05:37:31.916Z,18.22
2023-06-25T05:40:04.225Z,17.81
2023-06-25T05:42:36.581Z,17.21
2023-06-25T05:45:13.745Z,18.33
2023-06-25T05:47:46.253Z,17.87
2023-06-25T05:50:18.865Z,17.30
2023-06-25T05:52:51.243Z,16.94
2023-06-25T05:55:23.641Z,18.24
2023-06-25T05:57:56.056Z,18.47
2023-06-25T06:00:30.994Z,17.74
2023-06-25T06:03:03.642Z,17.96
2023-06-25T06:05:36.291Z,17.74
2023-06-25T06:08:09.083Z,17.18
2023-06-25T06:10:41.463Z,17.19
2023-06-25T06:13:13.802Z,17.81
2023-06-25T06:15:49.237Z,17.36
2023-06-25T06:18:21.582Z,17.67
2023-06-25T06:20:53.990Z,17.51
2023-06-25T06:23:26.327Z,17.71
2023-06-25T06:25:59.096Z,15.94
2023-06-25T06:28:31.500Z,16.63
2023-06-25T06:31:06.636Z,16.20
2023-06-25T06:33:40.121Z,15.85
2023-06-25T06:36:13.923Z,15.77
2023-06-25T06:38:46.320Z,15.51
2023-06-25T06:41:18.670Z,14.64
2023-06-25T06:43:50.962Z,14.55
2023-06-25T06:46:26.124Z,14.12
2023-06-25T06:48:58.520Z,13.92
2023-06-25T06:51:30.930Z,14.49
2023-06-25T06:54:03.390Z,14.53
2023-06-25T06:56:35.830Z,14.41
2023-06-25T06:59:08.181Z,14.96
2023-06-25T07:01:43.089Z,14.25
2023-06-25T07:04:17.328Z,13.42
2023-06-25T07:06:50.151Z,13.48
2023-06-25T07:09:30.813Z,14.36
2023-06-25T07:12:03.337Z,14.34
2023-06-25T07:14:35.776Z,13.73
2023-06-25T07:17:11.026Z,13.89
2023-06-25T07:19:43.396Z,13.50
2023-06-25T07:22:15.852Z,13.86
2023-06-25T07:24:48.368Z,13.49
2023-06-25T07:27:20.905Z,14.00
2023-06-25T07:29:53.307Z,13.41
2023-06-25T07:32:28.319Z,13.64
2023-06-25T07:35:01.121Z,12.80
2023-06-25T07:37:34.684Z,13.34
2023-06-25T07:40:09.361Z,12.74
2023-06-25T07:42:41.629Z,12.75
2023-06-25T07:45:15.272Z,12.72
2023-06-25T07:47:50.435Z,12.12
2023-06-25T07:50:22.906Z,11.79
2023-06-25T07:52:55.243Z,12.36
2023-06-25T07:55:29.753Z,12.24
2023-06-25T07:58:02.277Z,11.44
2023-06-25T08:00:34.599Z,10.79
2023-06-25T08:03:09.609Z,10.63
2023-06-25T08:05:41.968Z,10.29
2023-06-25T08:08:14.288Z,10.40
2023-06-25T08:10:46.926Z,10.29
2023-06-25T08:13:19.568Z,9.66
2023-06-25T08:15:51.930Z,10.57
2023-06-25T08:18:26.922Z,10.43
2023-06-25T08:20:59.201Z,10.23
2023-06-25T08:23:31.521Z,9.29
2023-06-25T08:26:03.978Z,8.99
2023-06-25T08:28:36.383Z,8.71
2023-06-25T08:31:08.747Z,9.29
2023-06-25T08:33:44.555Z,9.04
2023-06-25T08:36:17.267Z,9.06
2023-06-25T08:38:49.603Z,9.21
2023-06-25T08:41:21.881Z,8.65
2023-06-25T08:43:54.264Z,8.15
2023-06-25T08:46:29.276Z,8.36
2023-06-25T08:49:07.532Z,8.70
2023-06-25T08:51:41.610Z,8.92
2023-06-25T08:54:14.405Z,8.40
2023-06-25T08:56:47.293Z,9.16
2023-06-25T08:59:19.718Z,9.24
2023-06-25T09:01:52.348Z,8.41
2023-06-25T09:04:27.261Z,7.40
2023-06-25T09:07:04.361Z,7.41
2023-06-25T09:09:37.430Z,8.02
2023-06-25T09:12:11.367Z,7.35
2023-06-25T09:14:43.830Z,7.89
2023-06-25T09:17:16.245Z,6.39
2023-06-25T09:19:51.242Z,5.81
2023-06-25T09:22:23.630Z,5.16
2023-06-25T09:24:55.943Z,4.92
2023-06-25T09:27:29.504Z,5.05
2023-06-25T09:30:01.887Z,4.96
2023-06-25T09:32:34.316Z,4.80
2023-06-25T09:35:12.026Z,5.00
2023-06-25T09:37:45.207Z,5.13
2023-06-25T09:40:17.985Z,5.29
2023-06-25T09:42:52.227Z,5.07
2023-06-25T09:45:27.450Z,4.86
2023-06-25T09:48:02.837Z,5.33
2023-06-25T09:50:43.367Z,5.13
2023-06-25T09:53:21.492Z,5.41
2023-06-25T09:55:56.409Z,5.59
2023-06-25T09:58:30.194Z,5.69
2023-06-25T10:01:02.617Z,5.64
2023-06-25T10:03:35.732Z,5.58
2023-06-25T10:06:10.985Z,5.93
2023-06-25T10:08:43.385Z,6.01
2023-06-25T10:11:19.229Z,5.67
2023-06-25T10:13:52.996Z,5.10
2023-06-25T10:16:38.284Z,5.61
2023-06-25T10:19:12.332Z,6.08
2023-06-25T10:21:47.269Z,6.29
2023-06-25T10:24:19.655Z,5.81
2023-06-25T10:26:58.254Z,5.81
2023-06-25T10:29:30.521Z,5.79
2023-06-25T10:32:07.147Z,5.69
2023-06-25T10:34:41.634Z,5.43
2023-06-25T10:37:18.685Z,5.55
2023-06-25T10:39:51.102Z,5.51
2023-06-25T10:42:23.490Z,5.65
2023-06-25T10:44:55.854Z,5.57
2023-06-25T10:47:28.422Z,5.76
2023-06-25T10:50:00.900Z,5.47
2023-06-25T10:52:36.751Z,5.17
2023-06-25T10:55:11.765Z,5.50
2023-06-25T10:57:45.196Z,5.29
2023-06-25T11:00:18.838Z,5.24
2023-06-25T11:02:55.960Z,5.29
2023-06-25T11:05:39.596Z,5.52
2023-06-25T11:08:17.366Z,5.17
2023-06-25T11:10:49.936Z,5.35
2023-06-25T11:13:22.232Z,5.18
2023-06-25T11:15:55.271Z,5.16
2023-06-25T11:18:27.624Z,5.01
2023-06-25T11:21:04.907Z,5.44
2023-06-25T11:23:40.104Z,5.25
2023-06-25T11:26:13.823Z,5.31
2023-06-25T11:28:47.351Z,5.84
2023-06-25T11:31:19.657Z,5.99
2023-06-25T11:33:59.255Z,6.26
2023-06-25T11:36:31.773Z,5.82
2023-06-25T11:39:06.694Z,5.93
2023-06-25T11:41:39.133Z,6.26
2023-06-25T11:44:21.651Z,6.59
2023-06-25T11:46:55.973Z,6.46
2023-06-25T11:49:28.436Z,6.29
2023-06-25T11:52:03.298Z,6.29
2023-06-25T11:54:38.236Z,6.07
2023-06-25T11:57:11.444Z,6.01
2023-06-25T11:59:44.686Z,6.26
2023-06-25T12:02:17.448Z,5.94
2023-06-25T12:04:49.746Z,5.92
2023-06-25T12:07:22.033Z,6.16
2023-06-25T12:09:57.386Z,6.14
2023-06-25T12:12:29.938Z,6.36
2023-06-25T12:15:02.502Z,6.61
2023-06-25T12:17:34.869Z,6.63
2023-06-25T12:20:07.772Z,6.91
2023-06-25T12:22:40.172Z,6.58
2023-06-25T12:25:15.196Z,6.70
2023-06-25T12:27:47.801Z,6.81
2023-06-25T12:30:20.215Z,6.81
2023-06-25T12:32:54.764Z,6.73
2023-06-25T12:35:32.461Z,6.53
2023-06-25T12:38:04.777Z,6.94
2023-06-25T12:40:39.706Z,7.04
2023-06-25T12:43:12.133Z,7.09
2023-06-25T12:45:44.470Z,6.71
2023-06-25T12:48:16.768Z,6.92
2023-06-25T12:50:49.175Z,6.70
2023-06-25T12:53:21.572Z,6.92
2023-06-25T12:55:57.048Z,7.04
2023-06-25T12:58:29.406Z,6.74
2023-06-25T13:01:07.068Z,6.64
2023-06-25T13:03:40.659Z,6.94
2023-06-25T13:06:14.532Z,6.71
2023-06-25T13:08:46.810Z,6.49
2023-06-25T13:11:21.767Z,6.44
2023-06-25T13:13:54.823Z,6.97
2023-06-25T13:16:27.401Z,6.91
2023-06-25T13:19:02.172Z,6.70
2023-06-25T13:21:34.604Z,6.91
2023-06-25T13:24:07.645Z,6.85
2023-06-25T13:26:42.562Z,6.66
2023-06-25T13:29:14.949Z,6.91
2023-06-25T13:31:47.282Z,6.77
2023-06-25T13:34:19.587Z,6.43
2023-06-25T13:36:52.001Z,6.71
2023-06-25T13:39:24.319Z,6.48
2023-06-25T13:41:59.543Z,6.29
2023-06-25T13:44:32.014Z,6.00
2023-06-25T13:47:04.592Z,6.26
2023-06-25T13:49:36.882Z,6.14
2023-06-25T13:52:10.208Z,6.01
2023-06-25T13:54:42.500Z,5.89
2023-06-25T13:57:17.446Z,6.10
2023-06-25T13:59:50.067Z,6.33
2023-06-25T14:02:22.362Z,6.29
2023-06-25T14:04:55.111Z,6.44
2023-06-25T14:07:27.612Z,6.48
2023-06-25T14:10:00.168Z,6.09
2023-06-25T14:12:35.095Z,6.13
2023-06-25T14:15:07.672Z,6.01
2023-06-25T14:17:40.059Z,6.11
2023-06-25T14:20:12.618Z,6.02
2023-06-25T14:22:44.912Z,6.01
2023-06-25T14:25:17.285Z,5.76
2023-06-25T14:27:53.185Z,5.75
2023-06-25T14:30:26.365Z,6.10
2023-06-25T14:32:58.776Z,6.48
2023-06-25T14:35:31.161Z,5.85
2023-06-25T14:38:03.729Z,5.84
2023-06-25T14:40:36.131Z,5.90
2023-06-25T14:43:11.165Z,5.77
2023-06-25T14:45:43.702Z,5.54
2023-06-25T14:48:16.256Z,5.59
2023-06-25T14:50:48.682Z,5.77
2023-06-25T14:53:21.014Z,5.58
2023-06-25T14:55:53.441Z,5.79
2023-06-25T14:58:28.387Z,5.71
2023-06-25T15:01:01.167Z,5.51
2023-06-25T15:03:33.631Z,5.49
2023-06-25T15:06:11.971Z,5.75
2023-06-25T15:08:48.055Z,6.06
2023-06-25T15:11:20.358Z,5.90
2023-06-25T15:13:58.750Z,5.66
2023-06-25T15:16:31.247Z,5.63
2023-06-25T15:19:03.641Z,5.33
2023-06-25T15:21:35.995Z,5.70
2023-06-25T15:24:08.671Z,5.67
2023-06-25T15:26:41.337Z,5.81
2023-06-25T15:29:16.178Z,5.63
2023-06-25T15:31:48.608Z,5.38
2023-06-25T15:34:20.992Z,5.65
2023-06-25T15:36:53.381Z,5.73
2023-06-25T15:39:25.677Z,5.56
2023-06-25T15:41:58.051Z,5.69
2023-06-25T15:44:32.980Z,5.46
2023-06-25T15:47:05.462Z,5.36
2023-06-25T15:49:37.699Z,5.42
2023-06-25T15:52:10.519Z,5.51
2023-06-25T15:54:42.837Z,5.59
2023-06-25T15:57:15.370Z,5.20
2023-06-25T15:59:50.293Z,5.58
2023-06-25T16:02:22.592Z,5.66
2023-06-25T16:04:56.091Z,5.49
2023-06-25T16:07:28.660Z,5.22
2023-06-25T16:10:00.931Z,5.86
2023-06-25T16:12:33.181Z,5.41
2023-06-25T16:15:08.403Z,5.43
2023-06-25T16:17:40.933Z,5.48
2023-06-25T16:20:14.236Z,5.63
2023-06-25T16:22:46.689Z,5.57
2023-06-25T16:25:19.186Z,5.46
2023-06-25T16:27:51.546Z,5.70
2023-06-25T16:30:26.627Z,5.40
2023-06-25T16:32:59.240Z,4.98
2023-06-25T16:35:31.719Z,5.42
2023-06-25T16:38:04.061Z,5.36
2023-06-25T16:40:36.428Z,5.50
2023-06-25T16:43:09.148Z,5.26
2023-06-25T16:45:43.979Z,5.26
2023-06-25T16:48:16.365Z,5.06
2023-06-25T16:50:48.875Z,5.25
2023-06-25T16:53:21.206Z,5.16
2023-06-25T16:55:53.474Z,5.36
2023-06-25T16:58:25.835Z,5.74
2023-06-25T17:01:00.891Z,6.37
2023-06-25T17:03:33.453Z,6.28
2023-06-25T17:06:06.005Z,5.83
2023-06-25T17:08:38.321Z,5.51
2023-06-25T17:11:10.931Z,5.04
2023-06-25T17:13:43.266Z,5.12
2023-06-25T17:16:18.228Z,5.19
2023-06-25T17:18:50.571Z,4.99
2023-06-25T17:21:22.832Z,5.38
2023-06-25T17:23:55.203Z,5.39
2023-06-25T17:26:27.699Z,5.33
2023-06-25T17:29:00.041Z,5.41
2023-06-25T17:31:35.213Z,5.78
2023-06-25T17:34:07.522Z,6.12
2023-06-25T17:36:40.104Z,6.46
2023-06-25T17:39:12.484Z,5.69
2023-06-25T17:41:44.727Z,5.27
2023-06-25T17:44:17.170Z,5.15
2023-06-25T17:46:52.185Z,5.13
2023-06-25T17:49:24.524Z,5.15
2023-06-25T17:51:56.997Z,5.36
2023-06-25T17:54:35.220Z,5.34
2023-06-25T17:57:07.985Z,5.72
2023-06-25T17:59:40.414Z,5.40
2023-06-25T18:02:15.488Z,5.89
2023-06-25T18:04:47.789Z,5.67
2023-06-25T18:07:20.407Z,6.10
2023-06-25T18:09:53.053Z,6.15
2023-06-25T18:12:29.537Z,6.39
2023-06-25T18:15:01.920Z,6.50
2023-06-25T18:17:41.917Z,6.84
2023-06-25T18:20:15.452Z,6.34
2023-06-25T18:22:52.046Z,6.59
2023-06-25T18:25:24.433Z,6.31
2023-06-25T18:27:57.028Z,6.14
2023-06-25T18:30:29.349Z,6.45
2023-06-25T18:33:04.492Z,6.11
2023-06-25T18:35:37.094Z,6.08
2023-06-25T18:38:09.413Z,5.87
2023-06-25T18:40:42.286Z,6.04
2023-06-25T18:43:14.799Z,6.44
2023-06-25T18:45:47.132Z,6.34
2023-06-25T18:48:21.984Z,6.32
2023-06-25T18:50:54.424Z,6.76
2023-06-25T18:53:26.843Z,6.56
2023-06-25T18:56:00.395Z,6.62
2023-06-25T18:58:32.785Z,6.72
2023-06-25T19:01:05.255Z,6.71
2023-06-25T19:03:40.623Z,6.64
2023-06-25T19:06:13.002Z,6.74
2023-06-25T19:08:45.375Z,7.05
2023-06-25T19:11:17.709Z,6.75
2023-06-25T19:13:50.068Z,6.94
2023-06-25T19:16:22.602Z,6.82
2023-06-25T19:18:57.470Z,7.13
2023-06-25T19:21:37.032Z,6.81
2023-06-25T19:24:09.878Z,7.10
2023-06-25T19:26:42.258Z,7.14
2023-06-25T19:29:14.577Z,7.24
2023-06-25T19:31:46.901Z,7.52
2023-06-25T19:34:21.870Z,7.46
2023-06-25T19:36:54.496Z,7.51
2023-06-25T19:39:26.769Z,7.66
2023-06-25T19:41:59.415Z,7.36
2023-06-25T19:44:31.693Z,7.48
2023-06-25T19:47:04.221Z,7.54
2023-06-25T19:49:39.145Z,7.34
2023-06-25T19:52:11.690Z,7.37
2023-06-25T19:54:43.941Z,7.66
2023-06-25T19:57:16.774Z,7.54
2023-06-25T19:59:49.133Z,7.99
2023-06-25T20:02:22.245Z,7.74
2023-06-25T20:04:57.251Z,8.01
2023-06-25T20:07:32.308Z,7.98
2023-06-25T20:10:04.910Z,8.00
2023-06-25T20:12:37.296Z,7.89
2023-06-25T20:15:10.485Z,8.12
2023-06-25T20:17:43.273Z,8.11
2023-06-25T20:20:18.600Z,8.60
2023-06-25T20:22:50.922Z,8.42
2023-06-25T20:25:25.379Z,8.64
2023-06-25T20:27:58.266Z,8.33
2023-06-25T20:30:30.584Z,8.38
2023-06-25T20:33:05.635Z,8.57
2023-06-25T20:35:40.694Z,8.60
2023-06-25T20:38:13.046Z,8.42
2023-06-25T20:40:45.394Z,9.01
2023-06-25T20:43:17.729Z,9.61
2023-06-25T20:45:51.075Z,9.78
2023-06-25T20:48:23.385Z,9.07
2023-06-25T20:50:58.370Z,9.46
2023-06-25T20:53:31.734Z,9.57
2023-06-25T20:56:04.185Z,9.22
2023-06-25T20:58:36.474Z,8.72
2023-06-25T21:01:08.940Z,9.30
2023-06-25T21:03:41.349Z,8.95
2023-06-25T21:06:16.321Z,9.33
2023-06-25T21:08:48.684Z,8.96
2023-06-25T21:11:21.136Z,9.46
2023-06-25T21:13:53.497Z,9.49
2023-06-25T21:16:25.808Z,9.81
2023-06-25T21:18:58.253Z,9.55
2023-06-25T21:21:33.126Z,9.70
2023-06-25T21:24:05.616Z,9.84
2023-06-25T21:26:38.408Z,9.77
2023-06-25T21:29:10.746Z,9.84
2023-06-25T21:31:43.133Z,10.04
2023-06-25T21:34:15.465Z,10.16
2023-06-25T21:36:50.592Z,10.28
2023-06-25T21:39:22.890Z,10.24
2023-06-25T21:41:55.257Z,10.34
2023-06-25T21:44:27.612Z,10.31
2023-06-25T21:47:00.114Z,9.90
2023-06-25T21:49:32.553Z,10.33
2023-06-25T21:52:11.158Z,9.41
2023-06-25T21:54:43.507Z,9.62
2023-06-25T21:57:15.998Z,10.56
2023-06-25T21:59:48.339Z,9.95
2023-06-25T22:02:21.118Z,10.31
2023-06-25T22:04:53.495Z,10.76
2023-06-25T22:07:28.497Z,10.88
2023-06-25T22:10:00.895Z,11.46
2023-06-25T22:12:33.163Z,10.89
2023-06-25T22:15:05.732Z,11.36
2023-06-25T22:17:38.906Z,11.69
2023-06-25T22:20:12.405Z,11.70
2023-06-25T22:22:47.758Z,11.46
2023-06-25T22:25:20.594Z,11.66
2023-06-25T22:27:53.336Z,12.26
2023-06-25T22:30:26.155Z,12.18
2023-06-25T22:32:58.912Z,12.06
2023-06-25T22:35:31.389Z,12.49
2023-06-25T22:38:06.543Z,12.40
2023-06-25T22:40:39.194Z,12.59
2023-06-25T22:43:11.727Z,12.39
2023-06-25T22:45:44.240Z,12.43
2023-06-25T22:48:16.698Z,13.12
2023-06-25T22:50:49.088Z,12.62
2023-06-25T22:53:25.832Z,13.16
2023-06-25T22:55:58.692Z,12.72
2023-06-25T22:58:31.895Z,13.64
2023-06-25T23:01:04.408Z,12.49
2023-06-25T23:03:36.809Z,13.61
2023-06-25T23:06:09.478Z,13.84
2023-06-25T23:08:44.611Z,12.95
2023-06-25T23:11:16.917Z,13.04
2023-06-25T23:13:49.210Z,12.58
2023-06-25T23:16:24.445Z,12.35
2023-06-25T23:18:57.393Z,12.25
2023-06-25T23:21:30.519Z,12.46
2023-06-25T23:24:06.530Z,12.79
2023-06-25T23:26:46.513Z,13.47
2023-06-25T23:29:19.562Z,12.76
2023-06-25T23:31:52.033Z,12.52
2023-06-25T23:34:24.363Z,13.10
2023-06-25T23:36:56.875Z,12.59
2023-06-25T23:39:36.312Z,12.63
2023-06-25T23:42:09.521Z,12.96
2023-06-25T23:44:41.854Z,13.00
2023-06-25T23:47:14.354Z,13.32
2023-06-25T23:49:46.631Z,12.98
2023-06-25T23:52:18.981Z,13.44
2023-06-25T23:54:53.864Z,13.65
2023-06-25T23:57:26.420Z,13.23
2023-06-25T23:59:58.804Z,13.86
